createdAt,value
2023-03-16T00:02:08.361Z,21.13
2023-03-16T00:04:38.069Z,23.00
2023-03-16T00:07:06.355Z,22.60
2023-03-16T00:09:33.176Z,21.60
2023-03-16T00:12:03.590Z,17.03
2023-03-16T00:14:31.967Z,19.00
2023-03-16T00:16:58.812Z,18.33
2023-03-16T00:19:25.569Z,20.80
2023-03-16T00:21:53.363Z,18.87
2023-03-16T00:24:20.447Z,16.63
2023-03-16T00:26:48.093Z,19.40
2023-03-16T00:29:15.034Z,16.00
2023-03-16T00:31:45.522Z,19.43
2023-03-16T00:34:13.080Z,18.38
2023-03-16T00:36:39.777Z,18.53
2023-03-16T00:39:07.113Z,19.13
2023-03-16T00:41:38.237Z,15.60
2023-03-16T00:44:05.724Z,14.60
2023-03-16T00:46:32.837Z,14.63
2023-03-16T00:48:59.441Z,15.70
2023-03-16T00:51:26.102Z,17.30
2023-03-16T00:53:52.799Z,20.33
2023-03-16T00:56:19.611Z,17.43
2023-03-16T00:58:46.337Z,12.50
2023-03-16T01:01:16.922Z,12.57
2023-03-16T01:03:43.639Z,15.63
2023-03-16T01:06:17.301Z,15.33
2023-03-16T01:08:44.371Z,15.90
2023-03-16T01:11:16.344Z,14.13
2023-03-16T01:13:44.112Z,17.33
2023-03-16T01:16:11.196Z,16.03
2023-03-16T01:18:37.847Z,15.90
2023-03-16T01:21:08.180Z,14.97
2023-03-16T01:23:35.687Z,16.98
2023-03-16T01:26:02.512Z,13.27
2023-03-16T01:28:31.975Z,14.60
2023-03-16T01:31:05.959Z,17.00
2023-03-16T01:33:33.952Z,13.73
2023-03-16T01:36:07.289Z,16.57
2023-03-16T01:38:34.092Z,18.63
2023-03-16T01:41:00.999Z,15.27
2023-03-16T01:43:29.960Z,15.53
2023-03-16T01:46:05.699Z,14.37
2023-03-16T01:48:54.642Z,14.57
2023-03-16T01:51:37.833Z,16.20
2023-03-16T01:54:22.080Z,19.03
2023-03-16T01:56:58.592Z,15.20
2023-03-16T01:59:32.516Z,18.63
2023-03-16T02:02:00.118Z,13.77
2023-03-16T02:04:44.834Z,14.80
2023-03-16T02:07:16.993Z,16.70
2023-03-16T02:09:49.449Z,17.80
2023-03-16T02:12:18.749Z,14.90
2023-03-16T02:14:46.924Z,18.43
2023-03-16T02:17:20.341Z,15.87
2023-03-16T02:20:01.813Z,20.77
2023-03-16T02:22:28.608Z,17.43
2023-03-16T02:24:55.309Z,17.13
2023-03-16T02:27:40.952Z,15.30
2023-03-16T02:30:14.031Z,16.10
2023-03-16T02:32:41.796Z,15.17
2023-03-16T02:35:11.111Z,16.30
2023-03-16T02:37:37.716Z,15.93
2023-03-16T02:40:23.798Z,15.43
2023-03-16T02:43:09.937Z,19.10
2023-03-16T02:45:49.405Z,15.13
2023-03-16T02:48:27.134Z,12.40
2023-03-16T02:50:54.805Z,15.47
2023-03-16T02:53:21.533Z,16.40
2023-03-16T02:55:48.422Z,19.40
2023-03-16T02:58:16.758Z,17.77
2023-03-16T03:00:43.643Z,15.90
2023-03-16T03:03:10.467Z,15.20
2023-03-16T03:05:37.568Z,13.17
2023-03-16T03:08:05.688Z,16.17
2023-03-16T03:10:32.597Z,16.97
2023-03-16T03:12:59.433Z,13.67
2023-03-16T03:15:26.138Z,18.57
2023-03-16T03:17:52.970Z,17.63
2023-03-16T03:20:19.715Z,15.90
2023-03-16T03:22:48.986Z,15.17
2023-03-16T03:25:18.485Z,18.17
2023-03-16T03:27:46.730Z,14.60
2023-03-16T03:30:16.493Z,13.30
2023-03-16T03:32:44.211Z,17.73
2023-03-16T03:35:13.460Z,16.93
2023-03-16T03:37:42.492Z,18.47
2023-03-16T03:40:11.455Z,17.37
2023-03-16T03:42:39.336Z,15.40
2023-03-16T03:45:07.982Z,15.40
2023-03-16T03:47:34.962Z,18.70
2023-03-16T03:50:01.770Z,19.00
2023-03-16T03:52:28.787Z,20.93
2023-03-16T03:54:55.379Z,20.80
2023-03-16T03:57:22.229Z,17.13
2023-03-16T03:59:49.225Z,17.80
2023-03-16T04:02:16.354Z,20.27
2023-03-16T04:04:44.058Z,20.27
2023-03-16T04:07:11.448Z,17.53
2023-03-16T04:09:38.036Z,21.30
2023-03-16T04:12:06.302Z,22.57
2023-03-16T04:14:33.161Z,19.63
2023-03-16T04:17:00.181Z,21.37
2023-03-16T04:19:26.773Z,20.90
2023-03-16T04:21:53.690Z,22.00
2023-03-16T04:24:22.501Z,19.87
2023-03-16T04:26:49.189Z,19.80
2023-03-16T04:29:19.721Z,20.60
2023-03-16T04:31:46.915Z,17.40
2023-03-16T04:34:13.889Z,22.17
2023-03-16T04:36:41.901Z,26.50
2023-03-16T04:39:09.400Z,21.20
2023-03-16T04:41:36.219Z,20.47
2023-03-16T04:44:02.966Z,22.83
2023-03-16T04:46:29.769Z,22.57
2023-03-16T04:48:58.471Z,22.07
2023-03-16T04:51:26.134Z,23.93
2023-03-16T04:53:53.018Z,20.77
2023-03-16T04:56:21.423Z,22.00
2023-03-16T04:58:49.826Z,21.83
2023-03-16T05:01:18.717Z,21.47
2023-03-16T05:03:46.530Z,21.57
2023-03-16T05:06:13.095Z,20.03
2023-03-16T05:08:39.739Z,19.97
2023-03-16T05:11:06.551Z,22.97
2023-03-16T05:13:33.545Z,23.93
2023-03-16T05:16:00.890Z,23.50
2023-03-16T05:18:27.593Z,27.23
2023-03-16T05:20:58.207Z,25.73
2023-03-16T05:23:24.843Z,27.92
2023-03-16T05:25:51.621Z,23.10
2023-03-16T05:28:18.323Z,22.93
2023-03-16T05:30:48.148Z,22.23
2023-03-16T05:33:14.911Z,20.17
2023-03-16T05:35:41.577Z,25.03
2023-03-16T05:38:09.996Z,25.83
2023-03-16T05:40:37.479Z,27.20
2023-03-16T05:43:04.628Z,32.10
2023-03-16T05:45:31.473Z,30.97
2023-03-16T05:47:58.257Z,24.13
2023-03-16T05:50:26.697Z,29.27
2023-03-16T05:52:54.324Z,25.30
2023-03-16T05:55:21.112Z,24.33
2023-03-16T05:57:47.714Z,15.43
2023-03-16T06:00:16.401Z,19.67
2023-03-16T06:02:48.563Z,16.33
2023-03-16T06:05:16.664Z,17.30
2023-03-16T06:07:43.777Z,16.47
2023-03-16T06:10:11.745Z,16.40
2023-03-16T06:12:38.544Z,17.90
2023-03-16T06:15:10.468Z,17.73
2023-03-16T06:17:38.416Z,18.77
2023-03-16T06:20:11.425Z,16.47
2023-03-16T06:22:40.090Z,14.47
2023-03-16T06:25:08.109Z,12.80
2023-03-16T06:27:34.765Z,14.40
2023-03-16T06:30:01.679Z,12.40
2023-03-16T06:32:30.365Z,13.10
2023-03-16T06:34:59.676Z,16.60
2023-03-16T06:37:26.235Z,18.93
2023-03-16T06:39:52.741Z,13.53
2023-03-16T06:42:19.646Z,11.70
2023-03-16T06:44:46.253Z,10.57
2023-03-16T06:47:13.589Z,12.03
2023-03-16T06:49:40.489Z,11.97
2023-03-16T06:52:07.084Z,14.83
2023-03-16T06:54:35.347Z,12.60
2023-03-16T06:57:02.218Z,11.37
2023-03-16T06:59:28.950Z,10.93
2023-03-16T07:01:55.741Z,12.23
2023-03-16T07:04:22.461Z,17.80
2023-03-16T07:06:49.450Z,12.87
2023-03-16T07:09:15.957Z,11.73
2023-03-16T07:11:42.745Z,14.13
2023-03-16T07:14:09.460Z,11.13
2023-03-16T07:16:37.247Z,14.67
2023-03-16T07:19:03.848Z,14.80
2023-03-16T07:21:32.301Z,16.87
2023-03-16T07:24:00.265Z,13.83
2023-03-16T07:26:27.013Z,10.90
2023-03-16T07:28:53.646Z,13.03
2023-03-16T07:31:20.320Z,11.53
2023-03-16T07:33:47.031Z,10.07
2023-03-16T07:36:13.622Z,9.73
2023-03-16T07:38:40.394Z,12.70
2023-03-16T07:41:07.158Z,8.53
2023-03-16T07:43:34.509Z,19.60
2023-03-16T07:46:02.347Z,11.03
2023-03-16T07:48:29.081Z,11.73
2023-03-16T07:50:55.632Z,10.60
2023-03-16T07:53:22.754Z,11.13
2023-03-16T07:55:49.652Z,8.10
2023-03-16T07:58:16.317Z,11.93
2023-03-16T08:00:42.961Z,9.63
2023-03-16T08:03:10.160Z,11.23
2023-03-16T08:05:36.764Z,13.97
2023-03-16T08:08:03.428Z,12.93
2023-03-16T08:10:31.490Z,12.00
2023-03-16T08:12:58.345Z,10.03
2023-03-16T08:15:25.147Z,8.43
2023-03-16T08:17:52.645Z,10.77
2023-03-16T08:20:19.423Z,11.23
2023-03-16T08:22:46.941Z,8.57
2023-03-16T08:25:14.966Z,10.17
2023-03-16T08:27:43.161Z,11.37
2023-03-16T08:30:11.942Z,10.37
2023-03-16T08:32:41.155Z,10.00
2023-03-16T08:35:10.245Z,8.43
2023-03-16T08:37:38.993Z,9.60
2023-03-16T08:40:14.236Z,6.07
2023-03-16T08:42:43.212Z,8.43
2023-03-16T08:45:13.785Z,7.53
2023-03-16T08:47:41.492Z,7.57
2023-03-16T08:50:10.109Z,8.00
2023-03-16T08:52:36.763Z,6.27
2023-03-16T08:55:07.393Z,6.77
2023-03-16T08:57:34.680Z,6.70
2023-03-16T09:00:01.764Z,8.27
2023-03-16T09:02:29.168Z,6.87
2023-03-16T09:04:56.454Z,5.40
2023-03-16T09:07:23.110Z,5.13
2023-03-16T09:09:50.934Z,4.33
2023-03-16T09:12:17.644Z,4.07
2023-03-16T09:14:46.076Z,5.17
2023-03-16T09:17:13.015Z,6.97
2023-03-16T09:19:51.245Z,4.13
2023-03-16T09:22:19.964Z,4.23
2023-03-16T09:24:47.546Z,4.60
2023-03-16T09:27:15.407Z,4.07
2023-03-16T09:29:42.986Z,8.63
2023-03-16T09:32:09.976Z,4.40
2023-03-16T09:34:36.783Z,3.33
2023-03-16T09:37:03.860Z,3.63
2023-03-16T09:39:48.705Z,4.10
2023-03-16T09:42:35.458Z,5.47
2023-03-16T09:45:32.323Z,5.27
2023-03-16T09:48:03.745Z,5.43
2023-03-16T09:50:48.463Z,5.73
2023-03-16T09:53:28.700Z,5.07
2023-03-16T09:56:01.387Z,6.30
2023-03-16T09:58:28.575Z,3.73
2023-03-16T10:01:01.280Z,2.10
2023-03-16T10:04:09.808Z,2.37
2023-03-16T10:06:55.403Z,4.03
2023-03-16T10:09:33.248Z,2.97
2023-03-16T10:12:02.774Z,3.03
2023-03-16T10:14:53.712Z,3.23
2023-03-16T10:17:43.359Z,4.13
2023-03-16T10:20:17.782Z,3.85
2023-03-16T10:22:47.063Z,2.60
2023-03-16T10:25:31.678Z,3.07
2023-03-16T10:28:01.573Z,3.60
2023-03-16T10:30:36.456Z,5.57
2023-03-16T10:33:18.332Z,4.00
2023-03-16T10:35:51.394Z,3.00
2023-03-16T10:38:40.553Z,4.13
2023-03-16T10:41:23.150Z,2.83
2023-03-16T10:44:07.370Z,4.83
2023-03-16T10:46:48.754Z,3.63
2023-03-16T10:49:49.263Z,2.73
2023-03-16T10:52:34.538Z,2.53
2023-03-16T10:55:11.060Z,2.90
2023-03-16T10:57:42.787Z,2.73
2023-03-16T11:00:17.001Z,2.87
2023-03-16T11:02:44.200Z,2.53
2023-03-16T11:05:19.570Z,2.70
2023-03-16T11:07:50.991Z,3.27
2023-03-16T11:10:36.136Z,3.87
2023-03-16T11:13:14.815Z,4.57
2023-03-16T11:15:52.108Z,5.20
2023-03-16T11:18:31.377Z,2.70
2023-03-16T11:21:08.366Z,3.37
2023-03-16T11:23:39.405Z,2.40
2023-03-16T11:26:15.464Z,3.27
2023-03-16T11:28:48.786Z,3.03
2023-03-16T11:31:43.195Z,3.03
2023-03-16T11:34:16.222Z,3.73
2023-03-16T11:36:57.802Z,2.67
2023-03-16T11:39:50.754Z,2.30
2023-03-16T11:43:08.637Z,2.43
2023-03-16T11:45:48.414Z,4.00
2023-03-16T11:48:40.425Z,2.33
2023-03-16T11:51:21.170Z,2.10
2023-03-16T11:54:07.975Z,4.53
2023-03-16T11:56:42.789Z,2.60
2023-03-16T11:59:30.002Z,2.70
2023-03-16T12:02:23.273Z,3.10
2023-03-16T12:05:17.841Z,2.37
2023-03-16T12:08:04.461Z,2.30
2023-03-16T12:10:57.961Z,2.60
2023-03-16T12:13:38.991Z,3.70
2023-03-16T12:16:15.580Z,2.33
2023-03-16T12:19:31.760Z,2.00
2023-03-16T12:22:07.948Z,2.37
2023-03-16T12:24:42.648Z,2.23
2023-03-16T12:27:19.239Z,2.30
2023-03-16T12:29:59.815Z,7.07
2023-03-16T12:32:38.947Z,2.10
2023-03-16T12:35:18.468Z,3.00
2023-03-16T12:38:07.958Z,2.30
2023-03-16T12:40:50.896Z,13.63
2023-03-16T12:43:39.555Z,3.23
2023-03-16T12:46:18.729Z,2.10
2023-03-16T12:48:49.533Z,6.13
2023-03-16T12:51:16.304Z,2.57
2023-03-16T12:53:52.399Z,2.60
2023-03-16T12:56:30.992Z,2.93
2023-03-16T12:59:03.500Z,3.97
2023-03-16T13:01:38.118Z,2.27
2023-03-16T13:04:20.522Z,3.27
2023-03-16T13:06:52.853Z,2.20
2023-03-16T13:09:25.431Z,2.33
2023-03-16T13:11:53.430Z,1.90
2023-03-16T13:14:38.486Z,2.00
2023-03-16T13:17:07.195Z,1.77
2023-03-16T13:19:37.912Z,2.47
2023-03-16T13:22:19.976Z,2.30
2023-03-16T13:25:00.097Z,2.50
2023-03-16T13:27:34.528Z,1.92
2023-03-16T13:30:13.932Z,1.93
2023-03-16T13:32:40.891Z,3.63
2023-03-16T13:35:13.479Z,5.47
2023-03-16T13:37:43.843Z,2.93
2023-03-16T13:42:58.464Z,1.90
2023-03-16T13:48:05.629Z,3.27
2023-03-16T13:50:33.969Z,3.13
2023-03-16T13:53:04.805Z,1.80
2023-03-16T13:55:36.872Z,3.97
2023-03-16T13:58:04.864Z,3.70
2023-03-16T14:00:37.531Z,2.33
2023-03-16T14:03:20.255Z,2.63
2023-03-16T14:05:51.088Z,29.50
2023-03-16T14:08:23.743Z,3.20
2023-03-16T14:10:52.102Z,2.47
2023-03-16T14:13:28.407Z,2.33
2023-03-16T14:16:19.933Z,3.00
2023-03-16T14:18:52.371Z,3.60
2023-03-16T14:21:28.247Z,2.37
2023-03-16T14:23:59.296Z,2.23
2023-03-16T14:26:27.156Z,3.90
2023-03-16T14:28:57.551Z,3.00
2023-03-16T14:34:07.638Z,2.70
2023-03-16T14:36:38.916Z,2.60
2023-03-16T14:39:19.700Z,2.43
2023-03-16T14:41:51.421Z,3.30
2023-03-16T14:44:24.990Z,5.57
2023-03-16T14:46:57.142Z,4.20
2023-03-16T14:49:23.738Z,3.23
2023-03-16T14:51:52.868Z,2.53
2023-03-16T14:54:24.515Z,2.70
2023-03-16T14:56:54.342Z,3.77
2023-03-16T14:59:21.807Z,5.75
2023-03-16T15:01:50.570Z,2.47
2023-03-16T15:04:31.376Z,2.20
2023-03-16T15:06:58.870Z,2.13
2023-03-16T15:09:57.402Z,2.70
2023-03-16T15:12:26.249Z,1.80
2023-03-16T15:15:11.577Z,4.00
2023-03-16T15:17:39.082Z,7.93
2023-03-16T15:20:07.304Z,4.47
2023-03-16T15:22:37.789Z,3.37
2023-03-16T15:25:25.154Z,2.03
2023-03-16T15:27:53.881Z,2.70
2023-03-16T15:30:25.880Z,3.53
2023-03-16T15:32:53.130Z,2.77
2023-03-16T15:35:20.698Z,3.03
2023-03-16T15:37:47.969Z,4.23
2023-03-16T15:40:17.651Z,1.90
2023-03-16T15:42:46.884Z,3.97
2023-03-16T15:45:17.668Z,8.03
2023-03-16T15:50:12.868Z,2.27
2023-03-16T15:52:42.212Z,5.43
2023-03-16T15:55:25.032Z,3.47
2023-03-16T15:58:00.057Z,3.70
2023-03-16T16:00:37.566Z,2.50
2023-03-16T16:03:06.751Z,2.30
2023-03-16T16:05:33.836Z,3.37
2023-03-16T16:08:00.760Z,2.33
2023-03-16T16:10:28.788Z,2.23
2023-03-16T16:12:57.025Z,2.83
2023-03-16T16:15:27.490Z,4.40
2023-03-16T16:20:41.252Z,11.13
2023-03-16T16:23:10.512Z,4.20
2023-03-16T16:25:41.519Z,3.40
2023-03-16T16:28:24.706Z,2.33
2023-03-16T16:30:52.454Z,2.60
2023-03-16T16:33:34.912Z,3.80
2023-03-16T16:36:05.110Z,2.40
2023-03-16T16:38:32.488Z,3.05
2023-03-16T16:41:06.983Z,3.27
2023-03-16T16:43:47.760Z,2.50
2023-03-16T16:46:17.706Z,34.43
2023-03-16T16:48:47.200Z,9.48
2023-03-16T16:51:33.289Z,4.80
2023-03-16T16:54:01.208Z,6.43
2023-03-16T16:56:33.717Z,4.80
2023-03-16T16:59:11.127Z,3.00
2023-03-16T17:01:38.147Z,4.33
2023-03-16T17:04:13.555Z,3.53
2023-03-16T17:06:40.317Z,3.00
2023-03-16T17:09:08.949Z,2.47
2023-03-16T17:11:37.548Z,3.07
2023-03-16T17:14:07.791Z,4.40
2023-03-16T17:16:37.067Z,5.65
2023-03-16T17:19:04.321Z,2.90
2023-03-16T17:21:32.029Z,6.50
2023-03-16T17:24:00.367Z,3.50
2023-03-16T17:26:35.959Z,3.33
2023-03-16T17:29:06.717Z,2.97
2023-03-16T17:31:37.052Z,30.07
2023-03-16T17:34:19.856Z,9.57
2023-03-16T17:36:47.043Z,6.10
2023-03-16T17:39:21.203Z,6.03
2023-03-16T17:41:56.172Z,7.03
2023-03-16T17:44:23.987Z,7.30
2023-03-16T17:46:51.368Z,4.60
2023-03-16T17:49:20.158Z,10.30
2023-03-16T17:51:48.335Z,12.60
2023-03-16T17:54:15.104Z,17.30
2023-03-16T17:56:42.328Z,18.00
2023-03-16T17:59:27.800Z,16.80
2023-03-16T18:01:56.392Z,15.37
2023-03-16T18:04:25.950Z,38.57
2023-03-16T18:06:52.912Z,44.63
2023-03-16T18:09:20.597Z,39.97
2023-03-16T18:11:50.058Z,40.50
2023-03-16T18:14:39.964Z,35.07
2023-03-16T18:17:31.880Z,38.17
2023-03-16T18:19:59.466Z,41.63
2023-03-16T18:22:28.137Z,48.37
2023-03-16T18:24:55.329Z,25.87
2023-03-16T18:27:23.109Z,21.37
2023-03-16T18:29:50.047Z,19.73
2023-03-16T18:32:24.735Z,24.13
2023-03-16T18:34:52.859Z,19.80
2023-03-16T18:37:24.011Z,22.93
2023-03-16T18:39:52.805Z,19.63
2023-03-16T18:42:25.923Z,26.63
2023-03-16T18:44:52.677Z,33.57
2023-03-16T18:47:24.034Z,38.87
2023-03-16T18:49:54.137Z,26.83
2023-03-16T18:52:23.157Z,30.30
2023-03-16T18:54:51.566Z,29.50
2023-03-16T18:57:23.917Z,33.43
2023-03-16T18:59:51.254Z,29.00
2023-03-16T19:02:39.395Z,23.43
2023-03-16T19:05:37.062Z,22.63
2023-03-16T19:08:05.367Z,20.07
2023-03-16T19:10:36.717Z,23.27
2023-03-16T19:13:04.726Z,19.00
2023-03-16T19:15:33.957Z,18.53
2023-03-16T19:18:00.914Z,15.50
2023-03-16T19:20:30.653Z,19.13
2023-03-16T19:23:06.905Z,18.43
2023-03-16T19:25:39.082Z,14.57
2023-03-16T19:28:12.575Z,15.43
2023-03-16T19:30:39.187Z,14.67
2023-03-16T19:33:22.470Z,13.87
2023-03-16T19:35:52.170Z,21.13
2023-03-16T19:38:20.323Z,15.90
2023-03-16T19:40:52.085Z,21.50
2023-03-16T19:43:21.988Z,21.73
2023-03-16T19:45:49.894Z,19.40
2023-03-16T19:48:22.963Z,16.83
2023-03-16T19:50:53.263Z,19.03
2023-03-16T19:53:24.203Z,18.48
2023-03-16T19:55:54.728Z,17.33
2023-03-16T19:58:35.617Z,15.98
2023-03-16T20:01:05.993Z,25.10
2023-03-16T20:03:42.622Z,35.13
2023-03-16T20:08:56.392Z,26.67
2023-03-16T20:11:31.009Z,20.87
2023-03-16T20:13:59.136Z,22.50
2023-03-16T20:16:29.166Z,29.07
2023-03-16T20:18:58.462Z,21.77
2023-03-16T20:21:25.930Z,17.90
2023-03-16T20:23:53.572Z,18.47
2023-03-16T20:26:23.637Z,18.83
2023-03-16T20:28:51.987Z,18.42
2023-03-16T20:31:25.811Z,19.40
2023-03-16T20:33:53.928Z,16.57
2023-03-16T20:36:22.671Z,19.53
2023-03-16T20:38:50.399Z,29.17
2023-03-16T20:41:28.284Z,32.93
2023-03-16T20:43:58.669Z,37.77
2023-03-16T20:46:29.198Z,36.03
2023-03-16T20:48:57.618Z,31.15
2023-03-16T20:51:25.298Z,24.67
2023-03-16T20:53:52.607Z,20.50
2023-03-16T20:56:22.417Z,46.00
2023-03-16T20:58:51.769Z,48.50
2023-03-16T21:01:21.525Z,42.87
2023-03-16T21:03:50.769Z,40.93
2023-03-16T21:06:26.157Z,35.67
2023-03-16T21:08:54.453Z,37.50
2023-03-16T21:11:34.936Z,32.27
2023-03-16T21:14:02.184Z,28.58
2023-03-16T21:16:29.361Z,26.67
2023-03-16T21:18:56.153Z,32.73
2023-03-16T21:21:23.273Z,40.53
2023-03-16T21:23:49.910Z,56.20
2023-03-16T21:26:20.344Z,52.03
2023-03-16T21:28:55.865Z,42.40
2023-03-16T21:31:23.177Z,43.27
2023-03-16T21:33:51.383Z,53.90
2023-03-16T21:36:22.033Z,42.30
2023-03-16T21:38:50.280Z,48.90
2023-03-16T21:41:17.807Z,52.13
2023-03-16T21:43:45.124Z,43.70
2023-03-16T21:46:21.531Z,47.57
2023-03-16T21:48:50.919Z,33.13
2023-03-16T21:51:20.941Z,32.17
2023-03-16T21:53:49.341Z,33.67
2023-03-16T21:56:22.875Z,30.13
2023-03-16T21:58:50.213Z,26.30
2023-03-16T22:01:29.617Z,27.60
2023-03-16T22:04:09.056Z,27.70
2023-03-16T22:06:36.144Z,29.60
2023-03-16T22:09:04.171Z,29.87
2023-03-16T22:11:31.448Z,25.13
2023-03-16T22:13:59.600Z,27.07
2023-03-16T22:16:28.787Z,25.53
2023-03-16T22:18:58.042Z,27.20
2023-03-16T22:21:27.855Z,27.10
2023-03-16T22:23:56.128Z,32.83
2023-03-16T22:26:23.634Z,28.43
2023-03-16T22:28:51.002Z,33.83
2023-03-16T22:31:21.200Z,32.57
2023-03-16T22:33:49.518Z,34.20
2023-03-16T22:36:21.603Z,41.40
2023-03-16T22:39:12.406Z,41.93
2023-03-16T22:41:39.130Z,41.92
2023-03-16T22:44:17.313Z,42.60
2023-03-16T22:46:44.039Z,36.70
2023-03-16T22:49:28.946Z,37.57
2023-03-16T22:51:57.587Z,39.87
2023-03-16T22:54:28.790Z,39.30
2023-03-16T22:56:55.657Z,37.33
2023-03-16T22:59:25.290Z,41.67
2023-03-16T23:01:52.152Z,46.80
2023-03-16T23:04:22.004Z,39.17
2023-03-16T23:06:50.212Z,39.33
2023-03-16T23:09:18.464Z,36.10
2023-03-16T23:11:47.352Z,34.13
2023-03-16T23:14:17.025Z,37.43
2023-03-16T23:16:44.563Z,38.20
2023-03-16T23:19:25.344Z,37.90
2023-03-16T23:21:55.203Z,36.78
2023-03-16T23:24:22.515Z,30.90
2023-03-16T23:26:50.432Z,31.50
2023-03-16T23:29:17.831Z,32.93
2023-03-16T23:31:44.457Z,31.77
2023-03-16T23:34:16.718Z,33.23
2023-03-16T23:36:46.526Z,33.23
2023-03-16T23:39:13.640Z,33.23
2023-03-16T23:41:44.024Z,29.70
2023-03-16T23:44:17.927Z,31.80
2023-03-16T23:46:44.796Z,32.53
2023-03-16T23:49:19.464Z,32.33
2023-03-16T23:51:46.628Z,33.70
2023-03-16T23:54:23.290Z,33.43
2023-03-16T23:56:51.568Z,30.90
2023-03-16T23:59:21.063Z,34.13
